Ashby, Minnesota
Current Conditions -  °F | °C
As of 7:34 PM on Friday 19 Dec 2014 (Local Time) from KY63 Reporting Station
Haze Haze  
Wind Chill: 19°   Ceiling: 500
Heat Index: 29°   Visibility: 5mi
Dew Point: 29°   Wind: 13mph
Humidity: 98%   Direction: 170°S
Pressure: 30.06"   Gusts: 20mph
Location:  46.09°N, 95.82°W
Report Text: KY63 200134Z AUTO 17011G17KT 5SM BR OVC005 M01/M02 A3006 RMK AO2 T10151018
Loading
Personal Weather Stations






























Interactive Weather Map New forecast layout! Learn more

10-Day Weather Forecast

Advertisements
Track Severe Weather on mobile